createdAt,value
2019-03-09T00:00:52.589Z,74.29
2019-03-09T00:01:52.569Z,73.57
2019-03-09T00:02:52.561Z,74.40
2019-03-09T00:03:52.566Z,74.08
2019-03-09T00:04:52.551Z,74.40
2019-03-09T00:05:52.527Z,74.19
2019-03-09T00:06:52.515Z,74.40
2019-03-09T00:07:52.511Z,73.88
2019-03-09T00:08:52.517Z,74.08
2019-03-09T00:09:52.486Z,74.08
2019-03-09T00:10:52.480Z,73.98
2019-03-09T00:11:52.464Z,74.19
2019-03-09T00:12:52.463Z,73.88
2019-03-09T00:13:52.483Z,73.57
2019-03-09T00:14:52.436Z,73.77
2019-03-09T00:15:52.429Z,73.64
2019-03-09T00:16:52.406Z,73.98
2019-03-09T00:17:52.398Z,74.05
2019-03-09T00:18:52.467Z,74.46
2019-03-09T00:19:52.605Z,74.46
2019-03-09T00:20:52.433Z,74.36
2019-03-09T00:21:52.379Z,74.05
2019-03-09T00:22:52.341Z,73.67
2019-03-09T00:23:52.429Z,74.36
2019-03-09T00:24:52.478Z,74.40
2019-03-09T00:25:52.332Z,73.54
2019-03-09T00:26:52.409Z,73.22
2019-03-09T00:27:52.352Z,73.74
2019-03-09T00:28:52.283Z,73.33
2019-03-09T00:29:52.291Z,73.12
2019-03-09T00:30:52.263Z,72.40
2019-03-09T00:31:52.249Z,72.71
2019-03-09T00:32:52.247Z,71.98
2019-03-09T00:33:52.227Z,72.09
2019-03-09T00:34:52.269Z,71.98
2019-03-09T00:35:52.204Z,72.09
2019-03-09T00:36:52.193Z,72.19
2019-03-09T00:37:52.198Z,72.40
2019-03-09T00:38:52.189Z,71.98
2019-03-09T00:39:52.161Z,72.19
2019-03-09T00:40:52.165Z,71.98
2019-03-09T00:41:52.143Z,72.50
2019-03-09T00:42:52.128Z,72.19
2019-03-09T00:43:52.141Z,71.98
2019-03-09T00:44:52.189Z,72.19
2019-03-09T00:45:52.112Z,72.40
2019-03-09T00:46:52.082Z,72.30
2019-03-09T00:47:52.094Z,71.78
2019-03-09T00:48:52.065Z,71.88
2019-03-09T00:49:52.063Z,71.98
2019-03-09T00:50:52.078Z,71.78
2019-03-09T00:51:52.029Z,71.88
2019-03-09T00:52:52.020Z,72.09
2019-03-09T00:53:52.008Z,71.37
2019-03-09T00:54:52.003Z,71.78
2019-03-09T00:55:52.006Z,71.75
2019-03-09T00:56:52.019Z,71.12
2019-03-09T00:57:51.970Z,71.57
2019-03-09T00:58:51.956Z,72.09
2019-03-09T00:59:51.946Z,72.09
2019-03-09T01:00:51.941Z,72.78
2019-03-09T01:01:51.953Z,72.91
2019-03-09T01:02:51.917Z,73.22
2019-03-09T01:03:51.924Z,73.54
2019-03-09T01:04:51.900Z,73.95
2019-03-09T01:05:51.901Z,74.46
2019-03-09T01:06:51.875Z,75.39
2019-03-09T01:07:51.860Z,74.50
2019-03-09T01:08:51.870Z,74.98
2019-03-09T01:09:51.839Z,74.36
2019-03-09T01:10:51.824Z,74.60
2019-03-09T01:11:51.818Z,74.29
2019-03-09T01:12:51.825Z,74.60
2019-03-09T01:13:51.799Z,73.95
2019-03-09T01:14:51.800Z,74.77
2019-03-09T01:15:51.776Z,74.46
2019-03-09T01:16:51.767Z,74.60
2019-03-09T01:17:51.796Z,73.95
2019-03-09T01:18:51.750Z,73.54
2019-03-09T01:19:51.762Z,73.77
2019-03-09T01:20:58.990Z,73.22
2019-03-09T01:21:51.717Z,73.54
2019-03-09T01:22:51.691Z,73.74
2019-03-09T01:23:51.703Z,73.64
2019-03-09T01:24:51.678Z,73.64
2019-03-09T01:25:51.667Z,73.74
2019-03-09T01:26:51.661Z,73.64
2019-03-09T01:27:51.649Z,73.43
2019-03-09T01:28:51.663Z,74.36
2019-03-09T01:29:51.705Z,74.46
2019-03-09T01:30:51.609Z,74.36
2019-03-09T01:31:51.603Z,74.46
2019-03-09T01:32:51.596Z,75.60
2019-03-09T01:33:51.576Z,75.84
2019-03-09T01:34:51.594Z,74.91
2019-03-09T01:35:51.561Z,75.29
2019-03-09T01:36:51.554Z,75.32
2019-03-09T01:37:51.532Z,75.09
2019-03-09T01:38:51.520Z,75.39
2019-03-09T01:39:51.535Z,74.57
2019-03-09T01:40:51.503Z,74.46
2019-03-09T01:41:51.501Z,74.46
2019-03-09T01:42:51.475Z,74.57
2019-03-09T01:43:51.471Z,74.98
2019-03-09T01:44:51.477Z,75.01
2019-03-09T01:45:51.447Z,73.85
2019-03-09T01:46:51.437Z,74.46
2019-03-09T01:47:51.432Z,74.46
2019-03-09T01:48:51.419Z,74.36
2019-03-09T01:49:51.424Z,74.26
2019-03-09T01:50:51.395Z,74.36
2019-03-09T01:51:51.387Z,74.15
2019-03-09T01:52:51.377Z,74.36
2019-03-09T01:53:51.368Z,74.15
2019-03-09T01:54:51.371Z,73.64
2019-03-09T01:55:51.339Z,73.95
2019-03-09T01:56:51.332Z,74.15
2019-03-09T01:57:51.321Z,73.64
2019-03-09T01:58:51.307Z,74.05
2019-03-09T01:59:51.313Z,73.54
2019-03-09T02:00:51.295Z,73.95
2019-03-09T02:01:51.276Z,73.64
2019-03-09T02:02:51.265Z,73.85
2019-03-09T02:03:51.258Z,74.36
2019-03-09T02:04:51.276Z,74.15
2019-03-09T02:05:51.229Z,74.15
2019-03-09T02:06:51.220Z,74.22
2019-03-09T02:07:51.235Z,74.12
2019-03-09T02:08:51.198Z,74.36
2019-03-09T02:09:51.232Z,74.22
2019-03-09T02:10:51.173Z,74.33
2019-03-09T02:11:51.169Z,73.71
2019-03-09T02:12:51.156Z,74.02
2019-03-09T02:13:51.145Z,74.36
2019-03-09T02:14:51.145Z,73.91
2019-03-09T02:15:51.150Z,74.33
2019-03-09T02:16:51.113Z,73.81
2019-03-09T02:17:51.101Z,74.43
2019-03-09T02:18:51.095Z,74.12
2019-03-09T02:19:51.084Z,74.53
2019-03-09T02:20:51.108Z,73.91
2019-03-09T02:21:51.055Z,73.91
2019-03-09T02:22:51.053Z,74.02
2019-03-09T02:23:51.046Z,73.81
2019-03-09T02:24:51.035Z,74.12
2019-03-09T02:25:51.039Z,73.71
2019-03-09T02:26:51.031Z,74.12
2019-03-09T02:27:50.992Z,73.81
2019-03-09T02:28:50.988Z,74.12
2019-03-09T02:29:50.973Z,73.91
2019-03-09T02:30:50.959Z,74.02
2019-03-09T02:31:50.991Z,73.91
2019-03-09T02:32:50.958Z,73.88
2019-03-09T02:33:50.935Z,73.77
2019-03-09T02:34:50.921Z,74.12
2019-03-09T02:35:50.901Z,74.19
2019-03-09T02:36:50.924Z,74.43
2019-03-09T02:37:50.894Z,74.08
2019-03-09T02:38:50.914Z,74.19
2019-03-09T02:39:51.859Z,73.98
2019-03-09T02:40:50.855Z,73.57
2019-03-09T02:41:50.898Z,73.98
2019-03-09T02:42:50.840Z,73.98
2019-03-09T02:43:50.834Z,73.88
2019-03-09T02:44:50.809Z,74.40
2019-03-09T02:45:50.798Z,73.98
2019-03-09T02:46:50.806Z,73.77
2019-03-09T02:47:50.775Z,73.88
2019-03-09T02:48:50.783Z,73.57
2019-03-09T02:49:50.767Z,74.29
2019-03-09T02:50:50.746Z,73.68
2019-03-09T02:51:50.751Z,74.19
2019-03-09T02:52:50.725Z,74.29
2019-03-09T02:53:50.718Z,74.60
2019-03-09T02:54:50.717Z,73.98
2019-03-09T02:55:50.688Z,74.08
2019-03-09T02:56:50.696Z,74.19
2019-03-09T02:57:50.677Z,74.19
2019-03-09T02:58:50.680Z,74.19
2019-03-09T02:59:50.660Z,74.60
2019-03-09T03:00:50.782Z,73.77
2019-03-09T03:01:50.679Z,74.71
2019-03-09T03:02:50.620Z,74.50
2019-03-09T03:03:50.609Z,74.29
2019-03-09T03:04:50.610Z,74.71
2019-03-09T03:05:50.593Z,75.12
2019-03-09T03:06:50.599Z,74.91
2019-03-09T03:07:50.580Z,75.12
2019-03-09T03:08:50.549Z,74.67
2019-03-09T03:09:50.542Z,74.91
2019-03-09T03:10:50.546Z,74.19
2019-03-09T03:11:50.529Z,74.50
2019-03-09T03:12:50.521Z,74.26
2019-03-09T03:13:50.496Z,74.46
2019-03-09T03:14:50.486Z,74.81
2019-03-09T03:15:50.477Z,74.91
2019-03-09T03:16:50.484Z,74.50
2019-03-09T03:17:50.458Z,74.50
2019-03-09T03:18:50.446Z,74.91
2019-03-09T03:19:50.431Z,74.98
2019-03-09T03:20:50.419Z,74.67
2019-03-09T03:21:50.523Z,74.57
2019-03-09T03:22:50.419Z,75.29
2019-03-09T03:23:50.396Z,74.67
2019-03-09T03:24:50.414Z,75.43
2019-03-09T03:25:50.371Z,74.81
2019-03-09T03:26:50.355Z,74.88
2019-03-09T03:27:50.369Z,74.88
2019-03-09T03:28:50.347Z,75.53
2019-03-09T03:29:50.384Z,75.09
2019-03-09T03:30:50.344Z,75.18
2019-03-09T03:31:50.362Z,75.43
2019-03-09T03:32:50.383Z,75.12
2019-03-09T03:33:50.281Z,75.22
2019-03-09T03:34:50.287Z,75.18
2019-03-09T03:35:50.260Z,75.39
2019-03-09T03:36:50.247Z,75.53
2019-03-09T03:37:50.289Z,75.18
2019-03-09T03:38:50.226Z,75.18
2019-03-09T03:39:50.215Z,75.29
2019-03-09T03:40:50.203Z,75.29
2019-03-09T03:41:50.196Z,75.18
2019-03-09T03:42:50.200Z,75.18
2019-03-09T03:43:50.246Z,75.49
2019-03-09T03:44:50.163Z,75.29
2019-03-09T03:45:50.157Z,75.18
2019-03-09T03:46:50.142Z,75.49
2019-03-09T03:47:50.150Z,75.09
2019-03-09T03:48:50.116Z,75.29
2019-03-09T03:49:50.114Z,75.29
2019-03-09T03:50:50.093Z,75.29
2019-03-09T03:51:50.090Z,75.60
2019-03-09T03:52:50.092Z,75.70
2019-03-09T03:53:50.065Z,76.01
2019-03-09T03:54:50.065Z,76.42
2019-03-09T03:55:50.047Z,76.63
2019-03-09T03:56:50.038Z,76.63
2019-03-09T03:57:50.039Z,76.73
2019-03-09T03:58:50.017Z,76.73
2019-03-09T03:59:50.000Z,76.73
2019-03-09T04:00:49.999Z,76.84
2019-03-09T04:01:49.984Z,77.04
2019-03-09T04:02:49.995Z,76.73
2019-03-09T04:03:49.961Z,76.73
2019-03-09T04:04:49.942Z,76.73
2019-03-09T04:05:49.929Z,76.73
2019-03-09T04:06:49.927Z,77.04
2019-03-09T04:07:49.942Z,77.04
2019-03-09T04:08:49.909Z,76.94
2019-03-09T04:09:49.914Z,77.04
2019-03-09T04:10:49.884Z,76.84
2019-03-09T04:11:49.868Z,76.94
2019-03-09T04:12:49.888Z,76.94
2019-03-09T04:13:49.872Z,76.63
2019-03-09T04:14:49.839Z,76.94
2019-03-09T04:15:49.825Z,77.25
2019-03-09T04:16:49.819Z,77.35
2019-03-09T04:17:49.807Z,77.35
2019-03-09T04:18:49.830Z,77.25
2019-03-09T04:19:49.779Z,77.35
2019-03-09T04:20:49.774Z,77.15
2019-03-09T04:21:49.792Z,77.35
2019-03-09T04:22:49.792Z,77.25
2019-03-09T04:23:49.763Z,77.35
2019-03-09T04:24:49.736Z,77.25
2019-03-09T04:25:49.720Z,77.56
2019-03-09T04:26:49.712Z,77.56
2019-03-09T04:27:49.701Z,77.45
2019-03-09T04:28:49.703Z,77.25
2019-03-09T04:29:49.673Z,77.76
2019-03-09T04:30:49.662Z,77.66
2019-03-09T04:31:49.656Z,77.66
2019-03-09T04:32:49.642Z,77.66
2019-03-09T04:33:49.660Z,77.76
2019-03-09T04:34:49.623Z,77.87
2019-03-09T04:35:49.614Z,77.35
2019-03-09T04:36:49.598Z,77.66
2019-03-09T04:37:49.601Z,77.56
2019-03-09T04:38:49.596Z,77.97
2019-03-09T04:39:49.566Z,77.97
2019-03-09T04:40:49.551Z,77.97
2019-03-09T04:41:49.542Z,77.97
2019-03-09T04:42:49.534Z,77.56
2019-03-09T04:43:49.666Z,77.87
2019-03-09T04:44:49.513Z,77.97
2019-03-09T04:45:49.502Z,78.08
2019-03-09T04:46:49.486Z,77.76
2019-03-09T04:47:49.482Z,78.18
2019-03-09T04:48:49.504Z,77.66
2019-03-09T04:49:49.455Z,77.87
2019-03-09T04:50:49.446Z,77.25
2019-03-09T04:51:49.432Z,76.94
2019-03-09T04:52:49.437Z,76.84
2019-03-09T04:53:49.414Z,77.35
2019-03-09T04:54:49.426Z,76.94
2019-03-09T04:55:49.400Z,77.04
2019-03-09T04:56:49.382Z,76.73
2019-03-09T04:57:49.366Z,77.35
2019-03-09T04:58:49.364Z,77.04
2019-03-09T04:59:49.375Z,77.25
2019-03-09T05:00:49.347Z,77.15
2019-03-09T05:01:49.330Z,77.35
2019-03-09T05:02:49.318Z,77.35
2019-03-09T05:03:49.306Z,77.97
2019-03-09T05:04:49.320Z,78.59
2019-03-09T05:05:49.288Z,78.69
2019-03-09T05:06:49.286Z,79.52
2019-03-09T05:07:49.266Z,79.11
2019-03-09T05:08:49.254Z,80.48
2019-03-09T05:09:49.264Z,79.72
2019-03-09T05:10:49.230Z,79.86
2019-03-09T05:11:49.222Z,80.69
2019-03-09T05:12:49.271Z,80.79
2019-03-09T05:13:49.196Z,79.76
2019-03-09T05:14:49.204Z,80.28
2019-03-09T05:15:49.178Z,80.79
2019-03-09T05:16:49.225Z,81.00
2019-03-09T05:17:49.175Z,79.76
2019-03-09T05:18:49.144Z,80.07
2019-03-09T05:19:49.157Z,80.90
2019-03-09T05:20:49.120Z,80.18
2019-03-09T05:21:49.114Z,80.18
2019-03-09T05:22:49.104Z,80.18
2019-03-09T05:23:49.099Z,79.83
2019-03-09T05:24:49.126Z,79.66
2019-03-09T05:25:49.070Z,79.45
2019-03-09T05:26:49.086Z,79.45
2019-03-09T05:27:49.049Z,79.55
2019-03-09T05:28:49.042Z,79.21
2019-03-09T05:29:49.050Z,79.04
2019-03-09T05:30:49.008Z,79.25
2019-03-09T05:31:49.005Z,79.41
2019-03-09T05:32:48.995Z,78.94
2019-03-09T05:33:48.995Z,79.41
2019-03-09T05:34:48.984Z,79.41
2019-03-09T05:35:48.956Z,79.41
2019-03-09T05:36:48.942Z,79.41
2019-03-09T05:37:48.936Z,79.41
2019-03-09T05:38:48.925Z,79.21
2019-03-09T05:39:48.948Z,79.11
2019-03-09T05:40:48.918Z,79.11
2019-03-09T05:41:48.892Z,79.83
2019-03-09T05:42:48.880Z,79.31
2019-03-09T05:43:48.873Z,79.14
2019-03-09T05:44:48.905Z,79.41
2019-03-09T05:45:48.866Z,80.24
2019-03-09T05:46:48.862Z,79.76
2019-03-09T05:47:48.833Z,80.28
2019-03-09T05:48:48.818Z,79.86
2019-03-09T05:49:48.808Z,80.96
2019-03-09T05:50:48.826Z,81.62
2019-03-09T05:51:48.794Z,82.55
2019-03-09T05:52:48.774Z,82.75
2019-03-09T05:53:48.762Z,82.55
2019-03-09T05:54:48.837Z,83.17
2019-03-09T05:55:48.760Z,83.31
2019-03-09T05:56:48.730Z,84.81
2019-03-09T05:57:48.729Z,85.17
2019-03-09T05:58:48.718Z,85.78
2019-03-09T05:59:48.702Z,85.89
2019-03-09T06:00:48.706Z,86.20
2019-03-09T06:01:48.682Z,86.10
2019-03-09T06:02:48.668Z,86.20
2019-03-09T06:03:48.666Z,86.20
2019-03-09T06:04:48.656Z,86.71
2019-03-09T06:05:48.659Z,86.71
2019-03-09T06:06:48.649Z,87.68
2019-03-09T06:07:48.610Z,87.48
2019-03-09T06:08:48.618Z,88.10
2019-03-09T06:09:48.606Z,87.99
2019-03-09T06:10:48.602Z,88.31
2019-03-09T06:11:48.571Z,88.71
2019-03-09T06:12:48.564Z,88.92
2019-03-09T06:13:48.550Z,89.23
2019-03-09T06:14:48.544Z,89.23
2019-03-09T06:15:48.561Z,89.44
2019-03-09T06:16:48.515Z,89.54
2019-03-09T06:17:48.502Z,89.23
2019-03-09T06:18:48.502Z,89.23
2019-03-09T06:19:48.498Z,89.75
2019-03-09T06:20:48.496Z,90.37
2019-03-09T06:21:48.499Z,90.37
2019-03-09T06:22:48.452Z,90.62
2019-03-09T06:23:48.435Z,90.78
2019-03-09T06:24:48.440Z,90.78
2019-03-09T06:25:48.429Z,90.89
2019-03-09T06:26:48.461Z,90.89
2019-03-09T06:27:48.430Z,91.71
2019-03-09T06:28:48.417Z,92.27
2019-03-09T06:29:48.422Z,91.55
2019-03-09T06:32:09.845Z,92.07
2019-03-09T06:33:09.800Z,91.34
2019-03-09T06:34:09.788Z,91.50
2019-03-09T06:35:09.836Z,91.75
2019-03-09T06:36:09.760Z,92.13
2019-03-09T06:37:09.815Z,92.17
2019-03-09T06:38:18.682Z,92.27
2019-03-09T06:39:09.736Z,92.58
2019-03-09T06:43:07.961Z,92.38
2019-03-09T06:44:06.516Z,92.07
2019-03-09T06:45:17.242Z,92.13
2019-03-09T06:46:12.785Z,92.23
2019-03-09T06:50:11.932Z,91.50
2019-03-09T06:55:07.158Z,91.61
2019-03-09T06:59:29.668Z,92.38
2019-03-09T07:02:56.963Z,92.33
2019-03-09T07:07:45.509Z,91.82
2019-03-09T07:11:40.414Z,91.20
2019-03-09T07:14:04.695Z,90.89
2019-03-09T07:15:01.663Z,90.47
2019-03-09T07:16:04.700Z,90.58
2019-03-09T07:17:01.658Z,90.78
2019-03-09T07:18:03.489Z,90.02
2019-03-09T07:20:11.944Z,90.02
2019-03-09T07:21:02.619Z,90.33
2019-03-09T07:22:01.638Z,90.43
2019-03-09T07:23:17.983Z,88.98
2019-03-09T07:24:01.582Z,89.40
2019-03-09T07:26:02.672Z,89.29
2019-03-09T07:27:01.543Z,88.78
2019-03-09T07:28:01.482Z,89.29
2019-03-09T07:29:01.518Z,88.74
2019-03-09T07:30:01.501Z,88.78
2019-03-09T07:31:01.468Z,88.43
2019-03-09T07:32:01.464Z,88.89
2019-03-09T07:34:02.622Z,88.57
2019-03-09T07:35:01.448Z,88.43
2019-03-09T07:36:01.395Z,88.95
2019-03-09T07:37:01.484Z,88.43
2019-03-09T07:38:01.408Z,88.12
2019-03-09T07:39:01.382Z,87.29
2019-03-09T07:40:01.373Z,87.40
2019-03-09T07:41:01.385Z,88.95
2019-03-09T07:42:01.336Z,88.64
2019-03-09T07:43:01.406Z,88.12
2019-03-09T07:44:01.372Z,88.84
2019-03-09T07:45:01.316Z,88.53
2019-03-09T07:47:24.968Z,88.02
2019-03-09T07:49:33.695Z,87.19
2019-03-09T07:50:33.579Z,86.94
2019-03-09T07:51:33.707Z,87.46
2019-03-09T07:53:34.652Z,86.84
2019-03-09T07:55:42.025Z,87.98
2019-03-09T07:56:33.552Z,87.46
2019-03-09T07:57:35.560Z,87.46
2019-03-09T07:58:58.516Z,86.74
2019-03-09T07:59:33.476Z,86.94
2019-03-09T08:00:33.485Z,85.97
2019-03-09T08:01:33.436Z,85.77
2019-03-09T08:02:33.449Z,85.63
2019-03-09T08:03:33.423Z,84.94
2019-03-09T08:04:33.381Z,85.42
2019-03-09T08:05:33.371Z,85.42
2019-03-09T08:06:33.366Z,85.01
2019-03-09T08:07:33.373Z,84.91
2019-03-09T08:08:33.385Z,84.29
2019-03-09T08:09:33.334Z,84.29
2019-03-09T08:10:33.402Z,83.47
2019-03-09T08:11:33.311Z,83.26
2019-03-09T08:12:33.319Z,82.70
2019-03-09T08:13:33.318Z,83.63
2019-03-09T08:14:33.274Z,83.32
2019-03-09T08:15:33.289Z,83.63
2019-03-09T08:16:35.827Z,83.12
2019-03-09T08:17:33.259Z,82.70
2019-03-09T08:18:33.261Z,82.60
2019-03-09T08:19:33.233Z,82.15
2019-03-09T08:20:33.206Z,81.23
2019-03-09T08:21:33.198Z,81.09
2019-03-09T08:22:33.195Z,80.77
2019-03-09T08:23:33.198Z,80.57
2019-03-09T08:24:33.205Z,79.30
2019-03-09T08:25:33.155Z,80.53
2019-03-09T08:26:33.156Z,80.74
2019-03-09T08:27:33.145Z,80.94
2019-03-09T08:28:33.163Z,80.36
2019-03-09T08:29:33.120Z,81.09
2019-03-09T08:30:33.099Z,80.77
2019-03-09T08:31:33.094Z,80.67
2019-03-09T08:32:33.148Z,81.60
2019-03-09T08:33:33.110Z,81.19
2019-03-09T08:34:33.075Z,82.11
2019-03-09T08:35:33.070Z,82.21
2019-03-09T08:36:34.958Z,82.53
2019-03-09T08:37:33.045Z,82.42
2019-03-09T08:38:33.046Z,83.18
2019-03-09T08:39:33.026Z,83.90
2019-03-09T08:40:33.028Z,84.31
2019-03-09T08:41:32.990Z,84.31
2019-03-09T08:42:32.979Z,84.00
2019-03-09T08:43:32.966Z,84.62
2019-03-09T08:44:33.058Z,84.21
2019-03-09T08:45:33.047Z,84.31
2019-03-09T08:46:32.963Z,84.52
2019-03-09T08:47:32.962Z,84.31
2019-03-09T08:48:32.931Z,84.31
2019-03-09T08:49:32.938Z,84.31
2019-03-09T08:50:32.911Z,84.00
2019-03-09T08:51:32.904Z,84.00
2019-03-09T08:52:32.897Z,84.00
2019-03-09T08:53:32.889Z,84.00
2019-03-09T08:54:32.884Z,84.31
2019-03-09T08:55:32.873Z,84.25
2019-03-09T08:56:33.642Z,84.77
2019-03-09T08:57:32.821Z,84.52
2019-03-09T08:58:32.813Z,84.35
2019-03-09T08:59:32.825Z,84.14
2019-03-09T09:00:32.935Z,84.00
2019-03-09T09:01:32.809Z,84.00
2019-03-09T09:02:32.775Z,84.21
2019-03-09T09:03:32.761Z,83.28
2019-03-09T09:04:34.621Z,83.07
2019-03-09T09:05:32.759Z,82.42
2019-03-09T09:06:32.727Z,82.32
2019-03-09T09:07:32.722Z,82.11
2019-03-09T09:08:32.695Z,82.32
2019-03-09T09:09:32.721Z,82.42
2019-03-09T09:10:32.733Z,80.77
2019-03-09T09:11:32.683Z,80.63
2019-03-09T09:12:32.652Z,79.91
2019-03-09T09:13:32.654Z,78.99
2019-03-09T09:14:32.666Z,79.50
2019-03-09T09:15:32.638Z,79.36
2019-03-09T09:16:32.612Z,78.85
2019-03-09T09:17:32.605Z,79.26
2019-03-09T09:18:32.595Z,78.54
2019-03-09T09:19:32.676Z,77.72
2019-03-09T09:20:32.577Z,77.17
2019-03-09T09:21:32.575Z,75.32
2019-03-09T09:22:32.549Z,74.98
2019-03-09T09:23:32.536Z,74.87
2019-03-09T09:24:32.572Z,74.74
2019-03-09T09:25:32.514Z,73.10
2019-03-09T09:26:32.523Z,73.57
2019-03-09T09:27:32.495Z,73.16
2019-03-09T09:28:32.488Z,72.34
2019-03-09T09:29:32.476Z,71.93
2019-03-09T09:30:32.484Z,70.70
2019-03-09T09:31:32.471Z,70.60
2019-03-09T09:32:32.469Z,70.67
2019-03-09T09:33:32.435Z,69.84
2019-03-09T09:34:32.422Z,69.84
2019-03-09T09:35:32.962Z,69.43
2019-03-09T09:36:32.401Z,68.21
2019-03-09T09:37:32.424Z,68.30
2019-03-09T09:38:32.394Z,68.10
2019-03-09T09:39:32.371Z,68.10
2019-03-09T09:40:32.394Z,68.30
2019-03-09T09:41:32.346Z,67.69
2019-03-09T09:42:32.338Z,67.66
2019-03-09T09:43:32.330Z,67.25
2019-03-09T09:44:32.314Z,67.35
2019-03-09T09:45:32.338Z,67.32
2019-03-09T09:46:32.293Z,67.32
2019-03-09T09:47:32.283Z,66.50
2019-03-09T09:48:32.272Z,66.09
2019-03-09T09:49:32.259Z,65.68
2019-03-09T09:50:32.287Z,66.09
2019-03-09T09:51:32.243Z,65.96
2019-03-09T09:52:32.245Z,65.75
2019-03-09T09:53:32.245Z,65.55
2019-03-09T09:54:32.205Z,64.62
2019-03-09T09:55:32.230Z,64.62
2019-03-09T09:56:32.185Z,64.62
2019-03-09T09:57:32.177Z,63.60
2019-03-09T09:58:32.164Z,62.99
2019-03-09T09:59:32.167Z,62.99
2019-03-09T10:00:32.171Z,63.29
2019-03-09T10:01:32.137Z,64.01
2019-03-09T10:02:32.125Z,62.65
2019-03-09T10:03:32.116Z,61.96
2019-03-09T10:04:32.098Z,59.20
2019-03-09T10:05:32.135Z,60.22
2019-03-09T10:06:32.083Z,59.48
2019-03-09T10:07:32.091Z,58.69
2019-03-09T10:08:32.053Z,58.89
2019-03-09T10:09:32.047Z,58.79
2019-03-09T10:10:32.051Z,58.38
2019-03-09T10:11:32.037Z,58.61
2019-03-09T10:12:32.023Z,59.33
2019-03-09T10:13:32.015Z,58.89
2019-03-09T10:14:31.993Z,58.89
2019-03-09T10:15:40.400Z,57.97
2019-03-09T10:16:31.977Z,57.66
2019-03-09T10:17:31.966Z,58.15
2019-03-09T10:18:31.956Z,57.84
2019-03-09T10:19:31.949Z,58.33
2019-03-09T10:20:31.985Z,55.94
2019-03-09T10:21:31.963Z,56.46
2019-03-09T10:22:31.912Z,56.56
2019-03-09T10:23:31.905Z,56.76
2019-03-09T10:24:31.927Z,56.46
2019-03-09T10:25:31.874Z,56.74
2019-03-09T10:26:31.879Z,56.74
2019-03-09T10:27:31.943Z,55.84
2019-03-09T10:28:31.857Z,57.28
2019-03-09T10:29:31.839Z,57.38
2019-03-09T10:30:31.828Z,57.48
2019-03-09T10:31:31.901Z,57.58
2019-03-09T10:32:31.868Z,57.58
2019-03-09T10:33:31.784Z,56.18
2019-03-09T10:34:31.775Z,56.79
2019-03-09T10:35:31.772Z,56.00
2019-03-09T10:36:31.791Z,55.69
2019-03-09T10:37:31.751Z,55.69
2019-03-09T10:38:31.745Z,55.69
2019-03-09T10:39:31.733Z,56.00
2019-03-09T10:40:31.710Z,56.71
2019-03-09T10:41:31.730Z,57.05
2019-03-09T10:42:31.688Z,57.53
2019-03-09T10:43:31.693Z,56.38
2019-03-09T10:44:31.686Z,56.38
2019-03-09T10:45:31.665Z,56.48
2019-03-09T10:46:31.684Z,56.38
2019-03-09T10:47:31.662Z,55.26
2019-03-09T10:48:31.627Z,55.26
2019-03-09T10:49:31.616Z,55.43
2019-03-09T10:50:31.620Z,55.26
2019-03-09T10:51:31.613Z,55.46
2019-03-09T10:52:31.590Z,55.74
2019-03-09T10:53:31.569Z,55.23
2019-03-09T10:54:35.979Z,55.54
2019-03-09T10:55:31.548Z,56.05
2019-03-09T10:56:32.005Z,55.30
2019-03-09T10:57:31.532Z,55.10
2019-03-09T11:04:42.289Z,56.02
2019-03-09T11:06:43.571Z,55.62
2019-03-09T11:07:40.531Z,56.15
2019-03-09T11:08:38.498Z,55.54
2019-03-09T11:09:38.467Z,55.74
2019-03-09T11:10:38.489Z,55.82
2019-03-09T11:11:40.138Z,56.23
2019-03-09T11:12:40.505Z,55.64
2019-03-09T11:13:38.465Z,56.76
2019-03-09T11:14:38.466Z,56.25
2019-03-09T11:15:40.526Z,56.66
2019-03-09T11:16:38.620Z,56.87
2019-03-09T11:17:38.505Z,57.38
2019-03-09T11:18:41.440Z,57.61
2019-03-09T11:19:38.336Z,57.38
2019-03-09T11:20:38.319Z,57.30
2019-03-09T11:21:38.327Z,57.81
2019-03-09T11:22:38.310Z,57.81
2019-03-09T11:23:38.348Z,57.92
2019-03-09T11:24:38.342Z,57.71
2019-03-09T11:25:38.283Z,57.30
2019-03-09T11:26:38.266Z,57.71
2019-03-09T11:27:38.290Z,57.40
2019-03-09T11:28:38.229Z,57.28
2019-03-09T11:29:38.234Z,57.58
2019-03-09T11:30:38.206Z,57.45
2019-03-09T11:31:38.205Z,55.76
2019-03-09T11:32:38.211Z,54.16
2019-03-09T11:33:38.173Z,52.78
2019-03-09T11:34:38.206Z,53.36
2019-03-09T11:35:38.152Z,54.33
2019-03-09T11:37:39.760Z,54.41
2019-03-09T11:39:47.195Z,55.26
2019-03-09T11:40:56.910Z,55.56
2019-03-09T11:41:48.119Z,55.49
2019-03-09T11:42:47.123Z,55.79
2019-03-09T11:43:47.104Z,55.54
2019-03-09T11:44:47.087Z,51.74
2019-03-09T11:45:47.082Z,49.73
2019-03-09T11:46:47.074Z,48.19
2019-03-09T11:47:47.072Z,50.29
2019-03-09T11:48:47.050Z,50.52
2019-03-09T11:49:47.039Z,51.23
2019-03-09T11:50:47.026Z,51.86
2019-03-09T11:51:47.016Z,53.19
2019-03-09T11:52:47.100Z,52.07
2019-03-09T11:53:47.002Z,52.62
2019-03-09T11:54:46.980Z,53.16
2019-03-09T11:55:46.972Z,53.19
2019-03-09T11:56:46.974Z,53.29
2019-03-09T11:57:46.989Z,53.42
2019-03-09T11:58:46.944Z,53.08
2019-03-09T11:59:46.934Z,53.08
2019-03-09T12:00:46.912Z,52.37
2019-03-09T12:01:46.905Z,53.06
2019-03-09T12:02:46.913Z,51.63
2019-03-09T12:03:47.461Z,52.78
2019-03-09T12:04:47.388Z,51.65
2019-03-09T12:05:46.864Z,51.65
2019-03-09T12:06:46.866Z,51.89
2019-03-09T12:07:46.867Z,52.19
2019-03-09T12:08:46.841Z,52.60
2019-03-09T12:09:46.814Z,52.29
2019-03-09T12:10:46.810Z,52.19
2019-03-09T12:11:46.805Z,52.39
2019-03-09T12:12:46.811Z,51.48
2019-03-09T12:13:46.783Z,51.78
2019-03-09T12:14:46.765Z,51.96
2019-03-09T12:15:46.757Z,50.46
2019-03-09T12:16:46.748Z,50.36
2019-03-09T12:17:47.149Z,50.48
2019-03-09T12:18:46.718Z,51.32
2019-03-09T12:19:46.730Z,51.84
2019-03-09T12:20:46.695Z,52.34
2019-03-09T12:21:46.689Z,51.93
2019-03-09T12:22:46.693Z,52.27
2019-03-09T12:23:46.668Z,51.84
2019-03-09T12:24:46.654Z,51.53
2019-03-09T12:25:46.650Z,51.32
2019-03-09T12:26:46.635Z,50.71
2019-03-09T12:27:46.662Z,50.53
2019-03-09T12:28:46.615Z,50.43
2019-03-09T12:29:46.620Z,49.79
2019-03-09T12:30:46.596Z,48.67
2019-03-09T12:31:46.574Z,49.95
2019-03-09T12:32:46.571Z,49.95
2019-03-09T12:33:46.585Z,49.43
2019-03-09T12:34:46.590Z,49.95
2019-03-09T12:35:46.536Z,49.74
2019-03-09T12:36:46.527Z,49.74
2019-03-09T12:37:46.529Z,49.54
2019-03-09T12:38:46.546Z,48.80
2019-03-09T12:39:46.525Z,49.59
2019-03-09T12:40:46.480Z,48.77
2019-03-09T12:41:46.486Z,48.67
2019-03-09T12:42:46.473Z,48.44
2019-03-09T12:43:46.474Z,48.26
2019-03-09T12:44:46.438Z,48.67
2019-03-09T12:45:46.434Z,48.88
2019-03-09T12:46:46.412Z,48.26
2019-03-09T12:47:46.412Z,48.47
2019-03-09T12:48:46.463Z,48.67
2019-03-09T12:49:46.413Z,49.49
2019-03-09T12:50:46.376Z,49.79
2019-03-09T12:51:46.361Z,49.90
2019-03-09T12:52:46.359Z,48.57
2019-03-09T12:53:46.430Z,48.96
2019-03-09T12:54:46.326Z,49.49
2019-03-09T12:55:46.325Z,48.77
2019-03-09T12:56:46.306Z,49.05
2019-03-09T12:57:46.299Z,48.24
2019-03-09T12:58:46.425Z,47.24
2019-03-09T12:59:46.278Z,45.37
2019-03-09T13:00:46.266Z,43.96
2019-03-09T13:01:46.268Z,44.93
2019-03-09T13:02:46.247Z,45.71
2019-03-09T13:03:46.256Z,47.05
2019-03-09T13:04:46.223Z,47.49
2019-03-09T13:05:46.812Z,47.13
2019-03-09T13:06:46.208Z,45.34
2019-03-09T13:07:46.195Z,44.40
2019-03-09T13:08:46.198Z,44.75
2019-03-09T13:09:46.177Z,45.46
2019-03-09T13:10:46.160Z,45.76
2019-03-09T13:11:46.160Z,46.52
2019-03-09T13:12:46.138Z,46.64
2019-03-09T13:13:46.142Z,47.56
2019-03-09T13:14:46.118Z,47.49
2019-03-09T13:15:46.111Z,47.58
2019-03-09T13:16:46.104Z,48.19
2019-03-09T13:17:46.100Z,48.02
2019-03-09T13:18:46.109Z,48.32
2019-03-09T13:19:46.060Z,48.22
2019-03-09T13:20:46.056Z,48.32
2019-03-09T13:21:55.180Z,48.02
2019-03-09T13:22:46.039Z,48.11
2019-03-09T13:23:46.046Z,48.40
2019-03-09T13:24:46.024Z,48.11
2019-03-09T13:25:46.002Z,49.13
2019-03-09T13:26:46.011Z,49.34
2019-03-09T13:27:45.981Z,49.04
2019-03-09T13:28:45.970Z,48.63
2019-03-09T13:29:45.979Z,49.46
2019-03-09T13:30:45.943Z,50.79
2019-03-09T13:31:45.933Z,49.98
2019-03-09T13:32:45.924Z,50.59
2019-03-09T13:33:45.936Z,50.69
2019-03-09T13:34:45.938Z,50.48